Aviation Digital Data Service (ADDS)

Output produced by TAFs form (2241 UTC 01 February 2015)
found at http://www.aviationweather.gov/adds/tafs/
 
KBJC 012146Z 12005KT 15SM BKN017 BKN025 M03/M07 A3013
KBJC 012031Z 0121/0218 10005KT P6SM SCT010 BKN020 
     FM012300 12005KT P6SM SCT020 BKN030 
     FM020200 VRB04KT P6SM SCT030 SCT120 BKN200 
     FM020600 31005KT P6SM SCT120 BKN200 
     FM021400 VRB05KT P6SM SCT120 BKN220